createdAt,value
2023-04-15T00:01:49.992Z,26.36
2023-04-15T00:04:17.210Z,25.88
2023-04-15T00:06:50.794Z,25.49
2023-04-15T00:09:17.745Z,26.42
2023-04-15T00:11:44.577Z,26.59
2023-04-15T00:14:11.509Z,26.20
2023-04-15T00:16:38.461Z,26.04
2023-04-15T00:19:05.489Z,26.47
2023-04-15T00:21:32.516Z,26.64
2023-04-15T00:23:59.482Z,26.30
2023-04-15T00:26:26.277Z,26.30
2023-04-15T00:28:53.542Z,26.49
2023-04-15T00:31:20.468Z,26.62
2023-04-15T00:33:47.507Z,26.44
2023-04-15T00:36:14.387Z,26.20
2023-04-15T00:38:41.249Z,27.20
2023-04-15T00:41:09.562Z,27.53
2023-04-15T00:43:36.637Z,26.91
2023-04-15T00:46:06.072Z,26.73
2023-04-15T00:48:33.353Z,27.19
2023-04-15T00:51:00.262Z,27.30
2023-04-15T00:53:27.204Z,27.79
2023-04-15T00:55:54.546Z,27.31
2023-04-15T00:58:21.663Z,26.98
2023-04-15T01:00:48.513Z,27.72
2023-04-15T01:03:15.560Z,27.64
2023-04-15T01:05:42.753Z,27.50
2023-04-15T01:08:09.713Z,27.02
2023-04-15T01:10:37.018Z,27.39
2023-04-15T01:13:04.289Z,27.76
2023-04-15T01:15:32.110Z,27.01
2023-04-15T01:18:03.061Z,27.16
2023-04-15T01:20:30.093Z,27.03
2023-04-15T01:22:57.034Z,27.33
2023-04-15T01:25:33.867Z,28.00
2023-04-15T01:28:01.141Z,27.68
2023-04-15T01:30:28.301Z,27.63
2023-04-15T01:32:55.310Z,27.51
2023-04-15T01:35:22.294Z,27.73
2023-04-15T01:37:51.960Z,27.16
2023-04-15T01:40:18.855Z,27.59
2023-04-15T01:42:45.668Z,28.03
2023-04-15T01:45:13.060Z,27.62
2023-04-15T01:47:40.148Z,28.56
2023-04-15T01:50:07.548Z,28.10
2023-04-15T01:52:34.413Z,28.75
2023-04-15T01:55:01.333Z,28.31
2023-04-15T01:57:28.325Z,28.78
2023-04-15T01:59:55.247Z,28.23
2023-04-15T02:02:22.261Z,28.77
2023-04-15T02:04:49.233Z,28.11
2023-04-15T02:07:16.576Z,28.41
2023-04-15T02:09:43.508Z,28.78
2023-04-15T02:12:10.343Z,28.08
2023-04-15T02:14:37.404Z,28.53
2023-04-15T02:17:04.237Z,28.16
2023-04-15T02:19:31.029Z,28.47
2023-04-15T02:21:57.875Z,27.87
2023-04-15T02:24:24.719Z,27.91
2023-04-15T02:26:51.595Z,28.61
2023-04-15T02:29:18.470Z,28.58
2023-04-15T02:31:45.419Z,28.35
2023-04-15T02:34:12.315Z,28.76
2023-04-15T02:36:44.432Z,28.59
2023-04-15T02:39:11.789Z,27.93
2023-04-15T02:41:38.898Z,28.77
2023-04-15T02:44:05.777Z,28.58
2023-04-15T02:46:32.705Z,28.77
2023-04-15T02:48:59.986Z,28.06
2023-04-15T02:51:31.231Z,28.67
2023-04-15T02:53:58.297Z,27.98
2023-04-15T02:56:25.256Z,27.42
2023-04-15T02:58:52.176Z,27.26
2023-04-15T03:01:19.229Z,26.80
2023-04-15T03:03:46.631Z,27.39
2023-04-15T03:06:13.605Z,27.02
2023-04-15T03:08:40.519Z,26.81
2023-04-15T03:11:07.422Z,25.33
2023-04-15T03:13:36.104Z,25.44
2023-04-15T03:16:10.664Z,25.05
2023-04-15T03:18:37.750Z,25.13
2023-04-15T03:21:05.102Z,24.19
2023-04-15T03:23:34.979Z,22.95
2023-04-15T03:26:03.590Z,22.85
2023-04-15T03:28:32.165Z,22.47
2023-04-15T03:31:00.086Z,21.94
2023-04-15T03:33:26.984Z,22.35
2023-04-15T03:35:54.085Z,21.58
2023-04-15T03:38:20.963Z,20.49
2023-04-15T03:40:47.818Z,20.78
2023-04-15T03:43:14.605Z,20.31
2023-04-15T03:45:41.580Z,20.41
2023-04-15T03:48:17.259Z,19.91
2023-04-15T03:50:45.414Z,19.45
2023-04-15T03:53:12.346Z,19.38
2023-04-15T03:55:39.240Z,19.24
2023-04-15T03:58:06.124Z,19.09
2023-04-15T04:00:33.275Z,19.58
2023-04-15T04:03:05.203Z,19.78
2023-04-15T04:05:35.559Z,19.82
2023-04-15T04:08:02.428Z,20.22
2023-04-15T04:10:29.269Z,20.90
2023-04-15T04:12:56.500Z,20.16
2023-04-15T04:15:23.386Z,20.05
2023-04-15T04:17:54.692Z,20.19
2023-04-15T04:20:21.717Z,20.31
2023-04-15T04:22:48.583Z,19.76
2023-04-15T04:25:19.737Z,20.60
2023-04-15T04:27:46.923Z,20.61
2023-04-15T04:30:13.935Z,20.26
2023-04-15T04:32:44.712Z,21.29
2023-04-15T04:35:13.923Z,21.17
2023-04-15T04:37:41.033Z,20.82
2023-04-15T04:40:09.796Z,20.52
2023-04-15T04:42:38.674Z,20.86
2023-04-15T04:45:07.532Z,21.08
2023-04-15T04:47:34.422Z,21.75
2023-04-15T04:50:03.856Z,21.65
2023-04-15T04:52:34.889Z,21.46
2023-04-15T04:55:04.430Z,21.67
2023-04-15T04:57:31.419Z,21.30
2023-04-15T04:59:58.434Z,21.67
2023-04-15T05:02:25.437Z,21.91
2023-04-15T05:04:52.397Z,22.07
2023-04-15T05:07:19.228Z,22.25
2023-04-15T05:09:46.127Z,22.04
2023-04-15T05:12:14.112Z,22.33
2023-04-15T05:14:50.793Z,22.17
2023-04-15T05:17:19.622Z,22.94
2023-04-15T05:19:46.565Z,22.64
2023-04-15T05:22:16.148Z,21.74
2023-04-15T05:24:43.105Z,21.87
2023-04-15T05:27:09.930Z,22.15
2023-04-15T05:29:36.729Z,22.14
2023-04-15T05:32:07.014Z,21.34
2023-04-15T05:34:33.933Z,22.62
2023-04-15T05:37:00.784Z,22.03
2023-04-15T05:39:27.942Z,22.05
2023-04-15T05:41:55.853Z,21.63
2023-04-15T05:44:23.739Z,22.22
2023-04-15T05:46:52.511Z,21.96
2023-04-15T05:49:19.317Z,21.86
2023-04-15T05:51:48.029Z,22.05
2023-04-15T05:54:20.004Z,21.66
2023-04-15T05:56:47.434Z,21.88
2023-04-15T05:59:14.266Z,20.95
2023-04-15T06:01:41.304Z,21.17
2023-04-15T06:04:09.407Z,21.16
2023-04-15T06:06:36.321Z,21.10
2023-04-15T06:09:03.340Z,21.32
2023-04-15T06:11:33.200Z,21.07
2023-04-15T06:16:52.829Z,20.79
2023-04-15T06:19:19.843Z,21.55
2023-04-15T06:22:06.698Z,21.15
2023-04-15T06:24:45.461Z,20.56
2023-04-15T06:27:12.362Z,20.70
2023-04-15T06:29:46.391Z,20.75
2023-04-15T06:32:13.321Z,21.03
2023-04-15T06:34:43.869Z,21.36
2023-04-15T06:37:10.854Z,21.08
2023-04-15T06:39:37.771Z,20.61
2023-04-15T06:42:04.871Z,20.79
2023-04-15T06:44:34.108Z,19.65
2023-04-15T06:47:01.275Z,21.06
2023-04-15T06:49:28.161Z,20.37
2023-04-15T06:51:55.558Z,20.69
2023-04-15T06:54:22.376Z,20.79
2023-04-15T06:56:49.364Z,19.83
2023-04-15T06:59:16.205Z,19.97
2023-04-15T07:01:45.840Z,19.92
2023-04-15T07:04:12.776Z,19.84
2023-04-15T07:06:39.676Z,20.04
2023-04-15T07:09:09.008Z,20.20
2023-04-15T07:11:36.106Z,20.35
2023-04-15T07:14:02.959Z,20.01
2023-04-15T07:16:30.211Z,19.65
2023-04-15T07:19:02.772Z,19.50
2023-04-15T07:21:29.889Z,19.73
2023-04-15T07:23:56.722Z,19.58
2023-04-15T07:26:23.805Z,20.18
2023-04-15T07:28:53.516Z,19.87
2023-04-15T07:31:20.504Z,19.59
2023-04-15T07:33:47.443Z,19.34
2023-04-15T07:36:14.362Z,19.22
2023-04-15T07:38:44.101Z,18.46
2023-04-15T07:41:11.560Z,18.96
2023-04-15T07:43:41.398Z,19.09
2023-04-15T07:46:08.376Z,18.53
2023-04-15T07:48:36.342Z,19.01
2023-04-15T07:51:04.763Z,18.43
2023-04-15T07:53:31.789Z,18.25
2023-04-15T07:55:59.515Z,18.39
2023-04-15T07:58:26.381Z,18.87
2023-04-15T08:00:53.415Z,18.81
2023-04-15T08:03:20.352Z,18.85
2023-04-15T08:05:50.641Z,18.19
2023-04-15T08:08:17.448Z,18.09
2023-04-15T08:10:45.355Z,18.36
2023-04-15T08:13:14.877Z,17.81
2023-04-15T08:15:44.632Z,18.22
2023-04-15T08:18:11.535Z,18.31
2023-04-15T08:20:38.488Z,18.04
2023-04-15T08:23:08.591Z,18.23
2023-04-15T08:25:35.466Z,18.19
2023-04-15T08:28:05.426Z,17.85
2023-04-15T08:30:34.868Z,18.19
2023-04-15T08:33:01.991Z,17.59
2023-04-15T08:35:28.850Z,17.94
2023-04-15T08:37:55.754Z,17.62
2023-04-15T08:40:28.327Z,17.95
2023-04-15T08:42:59.133Z,17.52
2023-04-15T08:45:26.428Z,17.45
2023-04-15T08:47:56.304Z,16.90
2023-04-15T08:50:25.123Z,17.70
2023-04-15T08:52:55.924Z,17.18
2023-04-15T08:55:24.040Z,16.91
2023-04-15T08:57:54.014Z,16.45
2023-04-15T09:00:21.193Z,16.75
2023-04-15T09:02:48.478Z,16.60
2023-04-15T09:05:15.716Z,16.46
2023-04-15T09:07:42.698Z,16.50
2023-04-15T09:10:10.349Z,16.14
2023-04-15T09:12:38.857Z,15.91
2023-04-15T09:15:06.382Z,16.15
2023-04-15T09:17:34.023Z,16.69
2023-04-15T09:20:14.128Z,15.98
2023-04-15T09:22:42.149Z,15.51
2023-04-15T09:25:23.989Z,15.69
2023-04-15T09:28:00.155Z,15.08
2023-04-15T09:30:32.722Z,15.59
2023-04-15T09:33:01.847Z,15.07
2023-04-15T09:35:29.273Z,15.98
2023-04-15T09:38:07.424Z,15.48
2023-04-15T09:40:39.268Z,14.96
2023-04-15T09:43:10.233Z,15.16
2023-04-15T09:45:37.357Z,14.64
2023-04-15T09:48:22.656Z,14.43
2023-04-15T09:50:52.102Z,15.26
2023-04-15T09:53:28.868Z,15.46
2023-04-15T09:55:59.377Z,15.61
2023-04-15T09:58:28.987Z,15.33
2023-04-15T10:00:58.389Z,15.14
2023-04-15T10:03:31.906Z,14.97
2023-04-15T10:06:02.497Z,14.84
2023-04-15T10:08:36.457Z,15.24
2023-04-15T10:11:06.834Z,15.25
2023-04-15T10:13:34.012Z,14.79
2023-04-15T10:16:11.480Z,14.64
2023-04-15T10:18:44.857Z,14.24
2023-04-15T10:21:12.683Z,13.65
2023-04-15T10:23:40.390Z,14.50
2023-04-15T10:26:08.681Z,13.94
2023-04-15T10:28:35.661Z,13.91
2023-04-15T10:31:06.856Z,14.03
2023-04-15T10:33:35.144Z,13.73
2023-04-15T10:36:14.951Z,13.99
2023-04-15T10:38:44.650Z,14.26
2023-04-15T10:41:24.528Z,14.02
2023-04-15T10:43:54.561Z,13.22
2023-04-15T10:47:04.124Z,14.14
2023-04-15T10:49:33.531Z,14.75
2023-04-15T10:52:24.162Z,14.84
2023-04-15T10:55:22.557Z,14.05
2023-04-15T10:57:54.888Z,14.10
2023-04-15T11:00:26.141Z,14.47
2023-04-15T11:02:53.126Z,14.39
2023-04-15T11:05:22.279Z,14.21
2023-04-15T11:07:56.560Z,13.92
2023-04-15T11:10:26.355Z,14.52
2023-04-15T11:13:12.874Z,14.07
2023-04-15T11:15:41.132Z,14.53
2023-04-15T11:18:11.951Z,14.20
2023-04-15T11:20:41.232Z,14.26
2023-04-15T11:23:34.329Z,14.39
2023-04-15T11:26:03.271Z,14.22
2023-04-15T11:28:32.321Z,14.25
2023-04-15T11:31:10.326Z,14.04
2023-04-15T11:33:38.214Z,14.69
2023-04-15T11:36:05.416Z,14.16
2023-04-15T11:38:34.786Z,13.80
2023-04-15T11:41:02.460Z,13.89
2023-04-15T11:43:32.527Z,13.90
2023-04-15T11:46:18.155Z,14.33
2023-04-15T11:48:47.129Z,13.87
2023-04-15T11:51:14.895Z,13.74
2023-04-15T11:53:47.141Z,13.66
2023-04-15T11:56:22.633Z,13.69
2023-04-15T11:58:53.137Z,14.17
2023-04-15T12:01:26.328Z,14.17
2023-04-15T12:04:20.712Z,14.12
2023-04-15T12:07:04.488Z,14.04
2023-04-15T12:09:37.968Z,13.85
2023-04-15T12:12:06.909Z,13.91
2023-04-15T12:14:40.244Z,13.59
2023-04-15T12:17:07.256Z,14.59
2023-04-15T12:19:56.681Z,14.51
2023-04-15T12:22:23.630Z,15.07
2023-04-15T12:24:55.520Z,14.65
2023-04-15T12:27:29.869Z,14.35
2023-04-15T12:30:05.108Z,14.22
2023-04-15T12:32:36.209Z,15.08
2023-04-15T12:35:14.570Z,14.20
2023-04-15T12:37:42.743Z,14.30
2023-04-15T12:40:10.175Z,14.37
2023-04-15T12:42:37.284Z,14.60
2023-04-15T12:45:06.891Z,14.58
2023-04-15T12:50:42.897Z,14.16
2023-04-15T12:53:12.094Z,14.16
2023-04-15T12:55:42.726Z,13.89
2023-04-15T12:58:09.564Z,14.26
2023-04-15T13:00:45.412Z,13.91
2023-04-15T13:03:12.570Z,13.96
2023-04-15T13:05:39.524Z,13.84
2023-04-15T13:08:06.656Z,14.29
2023-04-15T13:10:36.426Z,14.30
2023-04-15T13:13:19.827Z,14.04
2023-04-15T13:15:54.164Z,14.38
2023-04-15T13:18:26.788Z,14.35
2023-04-15T13:21:25.006Z,14.14
2023-04-15T13:23:47.106Z,14.06
2023-04-15T13:26:17.943Z,14.71
2023-04-15T13:28:46.477Z,14.96
2023-04-15T13:34:00.225Z,14.52
2023-04-15T13:36:27.952Z,14.57
2023-04-15T13:38:58.007Z,14.90
2023-04-15T13:41:25.099Z,15.05
2023-04-15T13:43:54.155Z,14.61
2023-04-15T13:46:33.559Z,14.43
2023-04-15T13:49:00.741Z,14.64
2023-04-15T13:51:27.731Z,14.53
2023-04-15T13:53:54.721Z,14.20
2023-04-15T13:56:31.944Z,14.47
2023-04-15T13:59:00.190Z,14.51
2023-04-15T14:01:30.680Z,14.48
2023-04-15T14:04:01.119Z,14.41
2023-04-15T14:06:31.478Z,14.12
2023-04-15T14:09:02.111Z,14.03
2023-04-15T14:11:30.413Z,14.32
2023-04-15T14:13:57.383Z,14.47
2023-04-15T14:16:24.286Z,14.28
2023-04-15T14:18:54.256Z,14.47
2023-04-15T14:21:28.415Z,14.75
2023-04-15T14:24:02.639Z,14.79
2023-04-15T14:26:33.636Z,14.75
2023-04-15T14:29:00.592Z,14.80
2023-04-15T14:31:35.633Z,14.57
2023-04-15T14:34:06.505Z,14.78
2023-04-15T14:36:33.870Z,14.11
2023-04-15T14:39:03.822Z,14.29
2023-04-15T14:41:31.125Z,14.35
2023-04-15T14:44:06.264Z,14.71
2023-04-15T14:46:36.345Z,14.83
2023-04-15T14:49:03.397Z,15.11
2023-04-15T14:51:30.473Z,14.75
2023-04-15T14:53:57.442Z,15.09
2023-04-15T14:56:24.488Z,15.46
2023-04-15T14:58:51.436Z,15.15
2023-04-15T15:01:18.384Z,15.30
2023-04-15T15:03:45.543Z,15.68
2023-04-15T15:06:12.720Z,15.73
2023-04-15T15:08:39.579Z,15.79
2023-04-15T15:11:10.237Z,15.44
2023-04-15T15:13:37.459Z,15.64
2023-04-15T15:16:07.274Z,16.29
2023-04-15T15:18:34.232Z,15.85
2023-04-15T15:21:01.136Z,15.42
2023-04-15T15:23:28.131Z,15.49
2023-04-15T15:25:55.344Z,15.27
2023-04-15T15:28:26.397Z,15.50
2023-04-15T15:30:55.250Z,15.40
2023-04-15T15:33:24.786Z,15.74
2023-04-15T15:35:54.340Z,15.87
2023-04-15T15:38:24.604Z,15.77
2023-04-15T15:40:51.474Z,15.94
2023-04-15T15:43:18.316Z,15.99
2023-04-15T15:45:45.804Z,16.15
2023-04-15T15:48:12.788Z,16.49
2023-04-15T15:50:39.794Z,16.27
2023-04-15T15:53:06.679Z,16.53
2023-04-15T15:55:36.064Z,16.82
2023-04-15T15:58:11.657Z,17.05
2023-04-15T16:00:38.620Z,16.83
2023-04-15T16:03:07.299Z,17.16
2023-04-15T16:05:35.698Z,16.96
2023-04-15T16:08:02.762Z,17.14
2023-04-15T16:10:29.932Z,17.18
2023-04-15T16:12:56.859Z,17.24
2023-04-15T16:15:30.127Z,17.31
2023-04-15T16:17:57.227Z,17.14
2023-04-15T16:20:24.186Z,17.23
2023-04-15T16:22:51.081Z,17.32
2023-04-15T16:25:18.194Z,17.71
2023-04-15T16:27:58.893Z,17.48
2023-04-15T16:30:28.250Z,17.77
2023-04-15T16:32:55.273Z,17.63
2023-04-15T16:35:22.336Z,17.68
2023-04-15T16:37:49.455Z,17.86
2023-04-15T16:40:16.419Z,17.81
2023-04-15T16:42:43.402Z,17.74
2023-04-15T16:45:10.733Z,17.76
2023-04-15T16:47:37.743Z,18.02
2023-04-15T16:50:05.252Z,17.57
2023-04-15T16:52:32.819Z,18.07
2023-04-15T16:54:59.729Z,17.78
2023-04-15T16:57:31.641Z,17.96
2023-04-15T17:00:14.113Z,17.67
2023-04-15T17:02:41.112Z,17.95
2023-04-15T17:05:08.760Z,17.98
2023-04-15T17:07:35.756Z,17.75
2023-04-15T17:10:02.876Z,17.89
2023-04-15T17:12:30.232Z,17.45
2023-04-15T17:14:57.256Z,17.69
2023-04-15T17:17:24.197Z,17.83
2023-04-15T17:19:51.142Z,17.63
2023-04-15T17:22:18.378Z,17.82
2023-04-15T17:24:45.340Z,17.87
2023-04-15T17:27:33.337Z,17.96
2023-04-15T17:30:19.185Z,18.04
2023-04-15T17:32:46.246Z,17.99
2023-04-15T17:35:13.255Z,18.03
2023-04-15T17:37:40.232Z,18.05
2023-04-15T17:40:08.785Z,18.36
2023-04-15T17:42:36.000Z,18.38
2023-04-15T17:45:02.958Z,18.10
2023-04-15T17:47:30.008Z,18.21
2023-04-15T17:49:56.907Z,18.21
2023-04-15T17:52:24.103Z,17.98
2023-04-15T17:54:52.765Z,18.38
2023-04-15T17:57:22.188Z,18.19
2023-04-15T17:59:53.852Z,18.34
2023-04-15T18:02:22.058Z,18.58
2023-04-15T18:04:50.073Z,18.39
2023-04-15T18:07:17.353Z,18.64
2023-04-15T18:09:44.552Z,18.97
2023-04-15T18:12:13.849Z,18.42
2023-04-15T18:14:43.809Z,19.20
2023-04-15T18:17:11.306Z,19.10
2023-04-15T18:19:38.176Z,18.66
2023-04-15T18:22:07.752Z,18.71
2023-04-15T18:24:34.882Z,18.98
2023-04-15T18:27:04.268Z,18.77
2023-04-15T18:29:33.804Z,18.92
2023-04-15T18:32:00.886Z,19.06
2023-04-15T18:34:27.849Z,19.30
2023-04-15T18:36:56.538Z,19.66
2023-04-15T18:39:23.566Z,19.08
2023-04-15T18:41:50.383Z,19.19
2023-04-15T18:44:35.762Z,19.05
2023-04-15T18:47:02.731Z,19.13
2023-04-15T18:49:31.933Z,19.56
2023-04-15T18:52:17.538Z,19.14
2023-04-15T18:54:44.521Z,19.57
2023-04-15T18:57:14.303Z,19.23
2023-04-15T18:59:47.374Z,19.80
2023-04-15T19:02:14.277Z,19.89
2023-04-15T19:04:41.169Z,20.18
2023-04-15T19:07:08.066Z,20.00
2023-04-15T19:09:34.932Z,19.77
2023-04-15T19:12:20.490Z,20.00
2023-04-15T19:14:47.506Z,19.55
2023-04-15T19:17:14.565Z,19.54
2023-04-15T19:19:41.531Z,19.83
2023-04-15T19:22:09.514Z,19.97
2023-04-15T19:24:36.604Z,19.99
2023-04-15T19:27:03.677Z,20.20
2023-04-15T19:29:49.213Z,20.10
2023-04-15T19:32:16.352Z,19.88
2023-04-15T19:35:02.123Z,20.17
2023-04-15T19:37:29.327Z,20.62
2023-04-15T19:40:14.829Z,20.26
2023-04-15T19:42:41.959Z,20.10
2023-04-15T19:45:09.125Z,20.22
2023-04-15T19:47:36.717Z,20.52
2023-04-15T19:50:03.816Z,20.85
2023-04-15T19:52:30.731Z,20.73
2023-04-15T19:54:57.555Z,20.25
2023-04-15T19:57:24.486Z,20.91
2023-04-15T20:00:09.873Z,20.96
2023-04-15T20:02:37.014Z,20.23
2023-04-15T20:05:04.475Z,20.71
2023-04-15T20:07:52.333Z,21.12
2023-04-15T20:10:20.652Z,20.51
2023-04-15T20:12:50.882Z,20.61
2023-04-15T20:15:19.812Z,20.81
2023-04-15T20:17:46.770Z,20.44
2023-04-15T20:20:13.743Z,20.22
2023-04-15T20:22:40.813Z,20.46
2023-04-15T20:25:08.052Z,21.17
2023-04-15T20:27:34.914Z,20.61
2023-04-15T20:30:01.930Z,20.53
2023-04-15T20:32:28.857Z,20.72
2023-04-15T20:34:55.778Z,20.57
2023-04-15T20:37:22.717Z,20.01
2023-04-15T20:39:49.828Z,20.25
2023-04-15T20:42:17.647Z,20.41
2023-04-15T20:44:44.741Z,20.58
2023-04-15T20:47:11.614Z,21.43
2023-04-15T20:49:39.923Z,21.03
2023-04-15T20:52:08.220Z,20.79
2023-04-15T20:54:35.749Z,20.85
2023-04-15T20:57:02.906Z,21.21
2023-04-15T20:59:29.962Z,20.84
2023-04-15T21:01:56.991Z,21.20
2023-04-15T21:04:24.836Z,21.74
2023-04-15T21:06:51.977Z,21.05
2023-04-15T21:09:18.974Z,21.27
2023-04-15T21:12:00.553Z,21.44
2023-04-15T21:14:28.704Z,21.79
2023-04-15T21:16:57.446Z,21.53
2023-04-15T21:19:24.433Z,21.86
2023-04-15T21:21:51.323Z,21.95
2023-04-15T21:24:18.388Z,21.44
2023-04-15T21:26:45.248Z,21.19
2023-04-15T21:29:12.465Z,21.40
2023-04-15T21:31:40.341Z,22.11
2023-04-15T21:34:07.453Z,21.81
2023-04-15T21:36:34.726Z,21.87
2023-04-15T21:39:01.722Z,22.25
2023-04-15T21:41:28.710Z,21.58
2023-04-15T21:43:56.076Z,22.63
2023-04-15T21:46:25.281Z,21.85
2023-04-15T21:48:53.614Z,22.18
2023-04-15T21:51:20.778Z,22.36
2023-04-15T21:53:47.904Z,22.11
2023-04-15T21:56:14.882Z,22.42
2023-04-15T21:58:41.870Z,21.92
2023-04-15T22:01:08.740Z,22.03
2023-04-15T22:03:35.990Z,22.61
2023-04-15T22:06:03.687Z,21.95
2023-04-15T22:08:41.353Z,22.56
2023-04-15T22:11:19.476Z,22.02
2023-04-15T22:13:46.357Z,22.91
2023-04-15T22:16:13.271Z,22.27
2023-04-15T22:18:40.490Z,22.78
2023-04-15T22:21:07.342Z,22.39
2023-04-15T22:23:34.349Z,22.42
2023-04-15T22:26:01.212Z,22.79
2023-04-15T22:28:28.227Z,22.87
2023-04-15T22:30:55.134Z,22.83
2023-04-15T22:33:22.106Z,23.04
2023-04-15T22:35:48.943Z,23.25
2023-04-15T22:38:15.984Z,22.79
2023-04-15T22:40:42.869Z,22.63
2023-04-15T22:43:09.759Z,23.26
2023-04-15T22:45:36.615Z,22.87
2023-04-15T22:48:03.679Z,23.37
2023-04-15T22:50:31.185Z,23.88
2023-04-15T22:52:58.147Z,23.22
2023-04-15T22:55:25.180Z,23.02
2023-04-15T22:57:52.215Z,23.18
2023-04-15T23:00:19.107Z,23.32
2023-04-15T23:02:46.486Z,23.54
2023-04-15T23:05:13.678Z,23.27
2023-04-15T23:07:40.728Z,23.70
2023-04-15T23:10:08.237Z,24.09
2023-04-15T23:12:35.216Z,23.54
2023-04-15T23:15:03.810Z,23.77
2023-04-15T23:17:30.763Z,23.18
2023-04-15T23:19:57.634Z,23.56
2023-04-15T23:22:24.818Z,23.88
2023-04-15T23:24:51.745Z,23.15
2023-04-15T23:27:18.726Z,23.60
2023-04-15T23:29:45.633Z,23.80
2023-04-15T23:32:12.630Z,23.84
2023-04-15T23:34:39.438Z,23.81
2023-04-15T23:37:06.403Z,23.39
2023-04-15T23:39:33.289Z,23.44
2023-04-15T23:42:00.196Z,23.89
2023-04-15T23:44:27.826Z,23.40
2023-04-15T23:46:54.865Z,23.91
2023-04-15T23:49:21.713Z,23.57
2023-04-15T23:51:48.633Z,23.38
2023-04-15T23:54:15.612Z,22.93
2023-04-15T23:56:42.587Z,22.82
2023-04-15T23:59:09.679Z,24.04
